createdAt,value
2019-05-31T00:01:48.910Z,101424.64
2019-05-31T00:04:18.018Z,101417.48
2019-05-31T00:06:47.422Z,101414.49
2019-05-31T00:09:16.560Z,101421.12
2019-05-31T00:11:46.047Z,101414.16
2019-05-31T00:14:20.344Z,101417.49
2019-05-31T00:16:46.347Z,101411.97
2019-05-31T00:19:15.445Z,101409.89
2019-05-31T00:21:44.546Z,101412.55
2019-05-31T00:24:13.708Z,101412.41
2019-05-31T00:26:43.088Z,101411.66
2019-05-31T00:29:12.175Z,101412.52
2019-05-31T00:31:43.589Z,101410.33
2019-05-31T00:34:12.961Z,101409.36
2019-05-31T00:36:42.144Z,101404.77
2019-05-31T00:39:11.301Z,101401.12
2019-05-31T00:41:40.500Z,101410.99
2019-05-31T00:44:11.561Z,101404.42
2019-05-31T00:46:40.698Z,101404.34
2019-05-31T00:49:10.021Z,101411.81
2019-05-31T00:51:39.751Z,101403.88
2019-05-31T00:54:08.891Z,101405.95
2019-05-31T00:56:37.995Z,101401.88
2019-05-31T00:59:07.505Z,101396.75
2019-05-31T01:01:36.715Z,101391.08
2019-05-31T01:04:07.335Z,101399.53
2019-05-31T01:06:36.610Z,101400.27
2019-05-31T01:09:08.182Z,101399.56
2019-05-31T01:11:37.347Z,101395.81
2019-05-31T01:14:06.460Z,101395.58
2019-05-31T01:16:35.577Z,101399.09
2019-05-31T01:19:04.705Z,101393.92
2019-05-31T01:21:34.177Z,101395.10
2019-05-31T01:24:07.484Z,101384.06
2019-05-31T01:26:36.583Z,101394.13
2019-05-31T01:29:05.880Z,101396.28
2019-05-31T01:31:34.978Z,101395.06
2019-05-31T01:34:06.411Z,101393.23
2019-05-31T01:36:35.503Z,101395.54
2019-05-31T01:39:06.601Z,101394.56
2019-05-31T01:41:35.991Z,101394.68
2019-05-31T01:44:09.223Z,101392.48
2019-05-31T01:46:38.398Z,101394.41
2019-05-31T01:49:07.770Z,101392.92
2019-05-31T01:51:36.883Z,101390.38
2019-05-31T01:54:06.299Z,101387.13
2019-05-31T01:56:35.731Z,101381.38
2019-05-31T01:59:04.893Z,101384.52
2019-05-31T02:01:34.056Z,101391.44
2019-05-31T02:04:05.904Z,101382.59
2019-05-31T02:06:35.017Z,101386.31
2019-05-31T02:09:04.665Z,101381.23
2019-05-31T02:11:34.000Z,101381.97
2019-05-31T02:14:06.262Z,101386.98
2019-05-31T02:16:35.537Z,101388.27
2019-05-31T02:19:05.550Z,101387.25
2019-05-31T02:21:34.675Z,101386.78
2019-05-31T02:24:04.872Z,101390.11
2019-05-31T02:26:34.299Z,101390.81
2019-05-31T02:29:03.421Z,101389.59
2019-05-31T02:31:32.636Z,101394.91
2019-05-31T02:34:02.812Z,101393.74
2019-05-31T02:36:31.899Z,101398.59
2019-05-31T02:39:01.015Z,101392.77
2019-05-31T02:41:30.383Z,101390.81
2019-05-31T02:43:59.504Z,101393.61
2019-05-31T02:46:28.742Z,101395.11
2019-05-31T02:48:58.143Z,101397.77
2019-05-31T02:51:27.366Z,101391.70
2019-05-31T02:53:57.010Z,101394.95
2019-05-31T02:56:29.142Z,101395.17
2019-05-31T02:59:00.902Z,101395.64
2019-05-31T03:01:30.818Z,101393.17
2019-05-31T03:03:59.931Z,101401.90
2019-05-31T03:06:30.552Z,101396.22
2019-05-31T03:09:00.005Z,101401.31
2019-05-31T03:11:30.486Z,101408.30
2019-05-31T03:13:59.878Z,101402.59
2019-05-31T03:16:29.058Z,101399.74
2019-05-31T03:18:58.135Z,101400.52
2019-05-31T03:21:27.245Z,101407.39
2019-05-31T03:23:56.390Z,101406.70
2019-05-31T03:26:25.758Z,101411.55
2019-05-31T03:28:54.869Z,101412.29
2019-05-31T03:31:34.147Z,101411.59
2019-05-31T03:33:55.112Z,101412.39
2019-05-31T03:36:33.450Z,101418.57
2019-05-31T03:38:55.053Z,101415.16
2019-05-31T03:41:24.444Z,101416.61
2019-05-31T03:43:53.538Z,101417.71
2019-05-31T03:46:33.457Z,101420.30
2019-05-31T03:48:53.527Z,101413.53
2019-05-31T03:51:24.595Z,101424.80
2019-05-31T03:53:53.574Z,101422.41
2019-05-31T03:56:23.220Z,101422.14
2019-05-31T03:58:52.349Z,101428.20
2019-05-31T04:01:21.709Z,101423.16
2019-05-31T04:03:50.932Z,101424.49
2019-05-31T04:06:21.606Z,101426.09
2019-05-31T04:08:50.789Z,101428.28
2019-05-31T04:11:21.472Z,101428.48
2019-05-31T04:14:05.889Z,101434.50
2019-05-31T04:16:49.094Z,101437.98
2019-05-31T04:19:07.333Z,101445.22
2019-05-31T04:21:36.458Z,101439.81
2019-05-31T04:24:09.121Z,101436.58
2019-05-31T04:26:38.227Z,101436.10
2019-05-31T04:29:09.339Z,101434.11
2019-05-31T04:31:39.053Z,101439.66
2019-05-31T04:34:09.843Z,101440.09
2019-05-31T04:36:39.125Z,101440.45
2019-05-31T04:39:08.936Z,101439.45
2019-05-31T04:41:38.552Z,101439.45
2019-05-31T04:44:09.453Z,101444.19
2019-05-31T04:46:40.595Z,101450.73
2019-05-31T04:49:13.149Z,101452.23
2019-05-31T04:51:56.941Z,101451.58
2019-05-31T04:54:27.324Z,101455.52
2019-05-31T04:56:57.202Z,101451.53
2019-05-31T04:59:27.660Z,101445.62
2019-05-31T05:01:56.972Z,101451.30
2019-05-31T05:04:26.980Z,101446.95
2019-05-31T05:06:56.219Z,101450.13
2019-05-31T05:09:31.686Z,101448.05
2019-05-31T05:11:56.720Z,101447.12
2019-05-31T05:14:26.964Z,101450.95
2019-05-31T05:16:56.254Z,101449.77
2019-05-31T05:19:27.090Z,101456.16
2019-05-31T05:21:56.376Z,101455.84
2019-05-31T05:24:25.595Z,101452.67
2019-05-31T05:26:54.749Z,101446.73
2019-05-31T05:29:23.881Z,101449.39
2019-05-31T05:31:52.963Z,101456.16
2019-05-31T05:34:22.220Z,101460.20
2019-05-31T05:36:51.253Z,101458.01
2019-05-31T05:39:20.793Z,101460.52
2019-05-31T05:41:49.927Z,101457.81
2019-05-31T05:44:19.041Z,101463.76
2019-05-31T05:46:48.213Z,101462.97
2019-05-31T05:49:17.655Z,101465.40
2019-05-31T05:51:46.777Z,101455.09
2019-05-31T05:54:15.937Z,101458.84
2019-05-31T05:56:45.384Z,101460.50
2019-05-31T05:59:14.471Z,101464.14
2019-05-31T06:01:43.600Z,101460.94
2019-05-31T06:04:13.003Z,101465.05
2019-05-31T06:06:42.097Z,101465.59
2019-05-31T06:09:11.178Z,101472.69
2019-05-31T06:11:40.808Z,101465.59
2019-05-31T06:14:09.927Z,101468.25
2019-05-31T06:16:56.195Z,101469.88
2019-05-31T06:19:10.258Z,101470.23
2019-05-31T06:21:39.387Z,101474.53
2019-05-31T06:24:08.512Z,101474.91
2019-05-31T06:26:38.029Z,101476.25
2019-05-31T06:29:07.254Z,101474.20
2019-05-31T06:31:37.364Z,101476.70
2019-05-31T06:34:07.564Z,101473.24
2019-05-31T06:36:37.187Z,101471.19
2019-05-31T06:39:08.480Z,101469.79
2019-05-31T06:41:38.175Z,101470.65
2019-05-31T06:44:07.575Z,101473.45
2019-05-31T06:46:37.112Z,101472.81
2019-05-31T06:49:06.957Z,101469.69
2019-05-31T06:51:37.174Z,101464.16
2019-05-31T06:54:08.765Z,101466.02
2019-05-31T06:56:38.544Z,101463.16
2019-05-31T06:59:07.685Z,101465.70
2019-05-31T07:01:41.093Z,101466.05
2019-05-31T07:04:11.834Z,101462.65
2019-05-31T07:06:40.983Z,101466.05
2019-05-31T07:09:10.200Z,101473.45
2019-05-31T07:11:39.625Z,101475.78
2019-05-31T07:14:08.777Z,101477.03
2019-05-31T07:16:39.082Z,101478.36
2019-05-31T07:19:08.919Z,101479.86
2019-05-31T07:21:41.246Z,101474.88
2019-05-31T07:24:09.996Z,101477.89
2019-05-31T07:26:39.489Z,101474.05
2019-05-31T07:29:08.625Z,101475.16
2019-05-31T07:31:40.915Z,101479.05
2019-05-31T07:34:09.125Z,101475.45
2019-05-31T07:36:38.430Z,101473.52
2019-05-31T07:39:11.631Z,101469.88
2019-05-31T07:41:41.441Z,101475.09
2019-05-31T07:44:10.581Z,101475.09
2019-05-31T07:46:57.432Z,101477.75
2019-05-31T07:49:10.682Z,101476.78
2019-05-31T07:51:40.500Z,101473.52
2019-05-31T07:54:10.050Z,101475.31
2019-05-31T07:56:39.315Z,101473.48
2019-05-31T07:59:08.807Z,101463.42
2019-05-31T08:01:38.015Z,101455.89
2019-05-31T08:04:07.205Z,101457.46
2019-05-31T08:06:38.650Z,101463.30
2019-05-31T08:09:08.607Z,101458.94
2019-05-31T08:11:37.859Z,101453.12
2019-05-31T08:14:07.432Z,101459.17
2019-05-31T08:16:36.576Z,101452.12
2019-05-31T08:19:15.506Z,101450.04
2019-05-31T08:21:37.566Z,101450.28
2019-05-31T08:24:19.487Z,101455.53
2019-05-31T08:26:40.883Z,101454.53
2019-05-31T08:29:09.697Z,101453.44
2019-05-31T08:31:38.811Z,101456.38
2019-05-31T08:34:09.164Z,101457.47
2019-05-31T08:39:08.168Z,101453.56
2019-05-31T08:41:37.361Z,101462.94
2019-05-31T08:44:06.761Z,101457.11
2019-05-31T08:46:37.375Z,101455.75
2019-05-31T08:49:06.592Z,101451.75
2019-05-31T08:51:37.202Z,101444.20
2019-05-31T08:54:06.608Z,101439.42
2019-05-31T08:56:36.028Z,101439.54
2019-05-31T08:59:06.217Z,101441.05
2019-05-31T09:01:36.099Z,101435.67
2019-05-31T09:04:08.237Z,101440.13
2019-05-31T09:06:38.485Z,101438.36
2019-05-31T09:09:08.450Z,101437.02
2019-05-31T09:11:40.229Z,101433.69
2019-05-31T09:14:08.738Z,101430.33
2019-05-31T09:16:38.857Z,101421.31
2019-05-31T09:19:08.503Z,101420.91
2019-05-31T09:21:40.040Z,101423.87
2019-05-31T09:24:08.805Z,101418.86
2019-05-31T09:26:40.861Z,101418.80
2019-05-31T09:29:12.000Z,101415.78
2019-05-31T09:31:42.085Z,101409.09
2019-05-31T09:34:12.132Z,101411.38
2019-05-31T09:36:41.507Z,101406.75
2019-05-31T09:39:10.942Z,101407.75
2019-05-31T09:41:42.082Z,101408.01
2019-05-31T09:44:11.379Z,101407.67
2019-05-31T09:46:41.479Z,101403.34
2019-05-31T09:49:11.014Z,101404.93
2019-05-31T09:51:40.163Z,101405.10
2019-05-31T09:54:09.265Z,101404.59
2019-05-31T09:56:43.044Z,101412.26
2019-05-31T09:59:12.346Z,101402.34
2019-05-31T10:01:42.446Z,101410.44
2019-05-31T10:04:11.605Z,101418.09
2019-05-31T10:06:43.505Z,101409.34
2019-05-31T10:09:12.625Z,101412.71
2019-05-31T10:11:42.973Z,101401.45
2019-05-31T10:14:13.540Z,101404.31
2019-05-31T10:16:44.276Z,101401.97
2019-05-31T10:19:17.481Z,101399.37
2019-05-31T10:21:47.021Z,101394.00
2019-05-31T10:24:16.891Z,101394.23
2019-05-31T10:26:50.592Z,101392.00
2019-05-31T10:29:20.136Z,101386.12
2019-05-31T10:31:50.423Z,101386.45
2019-05-31T10:34:19.628Z,101384.67
2019-05-31T10:36:49.246Z,101379.33
2019-05-31T10:39:18.502Z,101382.11
2019-05-31T10:41:47.948Z,101380.79
2019-05-31T10:44:17.565Z,101381.86
2019-05-31T10:46:46.987Z,101380.00
2019-05-31T10:49:16.134Z,101374.30
2019-05-31T10:51:45.546Z,101379.45
2019-05-31T10:54:14.611Z,101372.61
2019-05-31T10:56:44.528Z,101368.80
2019-05-31T10:59:14.179Z,101358.69
2019-05-31T11:01:45.476Z,101355.37
2019-05-31T11:04:16.770Z,101355.25
2019-05-31T11:06:46.524Z,101350.89
2019-05-31T11:09:15.842Z,101350.63
2019-05-31T11:11:49.092Z,101350.70
2019-05-31T11:14:18.902Z,101349.42
2019-05-31T11:16:49.236Z,101341.83
2019-05-31T11:19:18.443Z,101337.11
2019-05-31T11:21:48.787Z,101339.72
2019-05-31T11:24:21.310Z,101338.81
2019-05-31T11:26:51.965Z,101340.23
2019-05-31T11:29:21.650Z,101327.96
2019-05-31T11:31:51.197Z,101337.25
2019-05-31T11:34:20.789Z,101332.03
2019-05-31T11:36:49.979Z,101333.09
2019-05-31T11:39:19.102Z,101327.96
2019-05-31T11:41:53.960Z,101334.08
2019-05-31T11:44:19.429Z,101330.38
2019-05-31T11:46:49.830Z,101327.08
2019-05-31T11:49:21.316Z,101323.75
2019-05-31T11:51:50.434Z,101322.96
2019-05-31T11:54:19.953Z,101311.66
2019-05-31T11:56:50.017Z,101311.70
2019-05-31T11:59:19.402Z,101311.01
2019-05-31T12:01:48.877Z,101308.95
2019-05-31T12:04:18.298Z,101314.63
2019-05-31T12:06:47.821Z,101304.98
2019-05-31T12:09:17.902Z,101306.67
2019-05-31T12:11:48.138Z,101308.17
2019-05-31T12:14:18.068Z,101306.64
2019-05-31T12:16:54.456Z,101312.06
2019-05-31T12:19:19.534Z,101311.08
2019-05-31T12:21:59.712Z,101308.23
2019-05-31T12:24:20.333Z,101306.09
2019-05-31T12:26:49.474Z,101304.33
2019-05-31T12:29:18.569Z,101312.41
2019-05-31T12:31:52.439Z,101306.36
2019-05-31T12:34:21.658Z,101307.73
2019-05-31T12:36:50.774Z,101301.74
2019-05-31T12:39:20.161Z,101301.94
2019-05-31T12:41:49.289Z,101303.52
2019-05-31T12:44:18.387Z,101304.38
2019-05-31T12:46:49.072Z,101301.37
2019-05-31T12:49:18.241Z,101299.54
2019-05-31T12:52:03.808Z,101296.33
2019-05-31T12:54:18.829Z,101298.48
2019-05-31T12:56:49.981Z,101291.25
2019-05-31T12:59:19.136Z,101294.84
2019-05-31T13:01:49.637Z,101289.95
2019-05-31T13:04:19.129Z,101287.94
2019-05-31T13:06:49.839Z,101293.79
2019-05-31T13:09:21.250Z,101294.86
2019-05-31T13:11:55.285Z,101290.73
2019-05-31T13:14:25.259Z,101293.34
2019-05-31T13:16:55.224Z,101296.48
2019-05-31T13:19:24.459Z,101295.89
2019-05-31T13:21:54.568Z,101304.86
2019-05-31T13:24:23.761Z,101298.67
2019-05-31T13:26:52.868Z,101302.68
2019-05-31T13:29:22.546Z,101300.45
2019-05-31T13:31:54.358Z,101299.42
2019-05-31T13:34:22.969Z,101298.08
2019-05-31T13:36:53.267Z,101296.02
2019-05-31T13:39:22.888Z,101292.56
2019-05-31T13:41:54.350Z,101293.61
2019-05-31T13:44:23.792Z,101294.08
2019-05-31T13:46:53.912Z,101297.36
2019-05-31T13:49:23.222Z,101293.32
2019-05-31T13:51:52.735Z,101287.58
2019-05-31T13:54:21.838Z,101286.98
2019-05-31T13:56:51.109Z,101290.63
2019-05-31T13:59:20.451Z,101285.58
2019-05-31T14:01:51.429Z,101282.23
2019-05-31T14:04:21.973Z,101285.20
2019-05-31T14:06:51.875Z,101287.34
2019-05-31T14:09:21.275Z,101285.15
2019-05-31T14:11:50.703Z,101283.86
2019-05-31T14:14:19.849Z,101286.42
2019-05-31T14:16:50.458Z,101276.36
2019-05-31T14:19:20.330Z,101282.62
2019-05-31T14:21:49.484Z,101281.54
2019-05-31T14:24:18.597Z,101274.38
2019-05-31T14:26:48.069Z,101272.08
2019-05-31T14:29:17.186Z,101274.61
2019-05-31T14:31:46.295Z,101270.87
2019-05-31T14:34:15.885Z,101267.23
2019-05-31T14:36:45.006Z,101267.65
2019-05-31T14:39:14.582Z,101267.96
2019-05-31T14:41:44.125Z,101270.22
2019-05-31T14:44:13.518Z,101260.97
2019-05-31T14:46:42.765Z,101262.16
2019-05-31T14:49:28.110Z,101262.14
2019-05-31T14:51:44.503Z,101263.56
2019-05-31T14:54:21.653Z,101255.37
2019-05-31T14:56:52.597Z,101259.23
2019-05-31T14:59:25.271Z,101265.95
2019-05-31T15:01:57.223Z,101261.22
2019-05-31T15:04:27.190Z,101255.29
2019-05-31T15:06:57.449Z,101255.79
2019-05-31T15:09:27.942Z,101254.04
2019-05-31T15:12:00.566Z,101251.64
2019-05-31T15:14:29.817Z,101256.72
2019-05-31T15:17:01.240Z,101257.43
2019-05-31T15:19:31.381Z,101250.35
2019-05-31T15:22:01.072Z,101252.50
2019-05-31T15:24:32.609Z,101251.79
2019-05-31T15:27:04.715Z,101253.12
2019-05-31T15:29:34.428Z,101252.55
2019-05-31T15:32:59.173Z,101246.70
2019-05-31T15:36:11.942Z,101249.50
2019-05-31T15:38:50.649Z,101250.70
2019-05-31T15:41:17.079Z,101251.81
2019-05-31T15:43:51.928Z,101250.47
2019-05-31T15:46:21.902Z,101242.36
2019-05-31T15:48:51.655Z,101248.27
2019-05-31T15:51:21.260Z,101239.19
2019-05-31T15:53:51.428Z,101243.55
2019-05-31T15:56:20.843Z,101241.09
2019-05-31T15:58:51.474Z,101238.13
2019-05-31T16:01:21.315Z,101238.85
2019-05-31T16:03:50.935Z,101232.49
2019-05-31T16:06:38.054Z,101236.30
2019-05-31T16:08:52.160Z,101231.97
2019-05-31T16:11:22.248Z,101227.14
2019-05-31T16:13:52.232Z,101228.36
2019-05-31T16:16:21.723Z,101226.62
2019-05-31T16:18:52.882Z,101224.50
2019-05-31T16:21:22.459Z,101227.64
2019-05-31T16:24:06.945Z,101226.34
2019-05-31T16:26:28.531Z,101223.23
2019-05-31T16:28:57.821Z,101217.42
2019-05-31T16:31:27.840Z,101216.31
2019-05-31T16:33:58.040Z,101214.86
2019-05-31T16:36:28.491Z,101216.44
2019-05-31T16:38:58.512Z,101213.43
2019-05-31T16:41:27.742Z,101210.46
2019-05-31T16:43:57.195Z,101207.43
2019-05-31T16:46:26.943Z,101207.13
2019-05-31T16:48:56.464Z,101208.66
2019-05-31T16:51:26.321Z,101205.98
2019-05-31T16:53:56.363Z,101206.84
2019-05-31T16:56:26.564Z,101201.77
2019-05-31T16:58:56.541Z,101206.86
2019-05-31T17:01:26.402Z,101201.96
2019-05-31T17:03:55.742Z,101195.22
2019-05-31T17:06:25.653Z,101198.28
2019-05-31T17:08:55.562Z,101202.31
2019-05-31T17:11:25.171Z,101198.09
2019-05-31T17:13:57.712Z,101199.09
2019-05-31T17:16:28.430Z,101197.24
2019-05-31T17:18:58.063Z,101197.59
2019-05-31T17:21:28.176Z,101192.38
2019-05-31T17:23:58.441Z,101194.72
2019-05-31T17:26:30.920Z,101190.67
2019-05-31T17:29:02.581Z,101192.68
2019-05-31T17:31:34.614Z,101193.85
2019-05-31T17:34:05.175Z,101195.37
2019-05-31T17:36:34.955Z,101191.95
2019-05-31T17:39:06.450Z,101191.45
2019-05-31T17:41:36.835Z,101188.24
2019-05-31T17:44:10.101Z,101186.88
2019-05-31T17:46:39.608Z,101190.50
2019-05-31T17:49:10.690Z,101190.46
2019-05-31T17:51:40.535Z,101194.78
2019-05-31T17:54:10.537Z,101195.46
2019-05-31T17:56:40.269Z,101192.95
2019-05-31T17:59:10.849Z,101188.73
2019-05-31T18:01:40.667Z,101189.10
2019-05-31T18:04:11.472Z,101189.67
2019-05-31T18:06:41.321Z,101182.56
2019-05-31T18:09:12.146Z,101187.48
2019-05-31T18:11:48.013Z,101182.09
2019-05-31T18:14:17.142Z,101187.20
2019-05-31T18:16:47.118Z,101182.14
2019-05-31T18:19:21.447Z,101182.81
2019-05-31T18:21:50.917Z,101173.52
2019-05-31T18:24:20.972Z,101175.19
2019-05-31T18:26:50.475Z,101175.52
2019-05-31T18:29:20.584Z,101173.98
2019-05-31T18:31:50.631Z,101176.21
2019-05-31T18:34:20.513Z,101170.47
2019-05-31T18:36:51.248Z,101164.75
2019-05-31T18:39:26.533Z,101170.47
2019-05-31T18:42:03.805Z,101163.75
2019-05-31T18:44:51.713Z,101168.81
2019-05-31T18:47:25.900Z,101166.13
2019-05-31T18:49:57.028Z,101166.94
2019-05-31T18:52:33.528Z,101167.76
2019-05-31T18:55:07.757Z,101172.65
2019-05-31T18:57:41.518Z,101176.48
2019-05-31T19:00:12.658Z,101173.34
2019-05-31T19:02:42.876Z,101171.91
2019-05-31T19:05:12.908Z,101175.66
2019-05-31T19:07:43.411Z,101174.90
2019-05-31T19:10:13.603Z,101175.61
2019-05-31T19:12:43.215Z,101185.34
2019-05-31T19:15:13.065Z,101183.00
2019-05-31T19:17:42.518Z,101186.38
2019-05-31T19:20:12.502Z,101183.86
2019-05-31T19:22:42.801Z,101188.01
2019-05-31T19:25:11.971Z,101182.34
2019-05-31T19:27:41.141Z,101178.52
2019-05-31T19:30:13.201Z,101181.91
2019-05-31T19:32:41.464Z,101181.95
2019-05-31T19:35:12.642Z,101179.61
2019-05-31T19:37:41.645Z,101177.45
2019-05-31T19:40:11.920Z,101178.57
2019-05-31T19:42:41.147Z,101177.27
2019-05-31T19:45:10.318Z,101181.20
2019-05-31T19:47:40.850Z,101189.77
2019-05-31T19:50:10.032Z,101189.07
2019-05-31T19:52:39.200Z,101189.77
2019-05-31T19:55:08.658Z,101197.76
2019-05-31T19:57:38.141Z,101198.28
2019-05-31T20:00:07.450Z,101197.91
2019-05-31T20:02:36.657Z,101207.53
2019-05-31T20:05:07.268Z,101202.73
2019-05-31T20:07:36.720Z,101201.55
2019-05-31T20:12:39.951Z,101203.20
2019-05-31T20:15:09.494Z,101198.33
2019-05-31T20:17:38.747Z,101203.69
2019-05-31T20:20:08.235Z,101202.57
2019-05-31T20:22:37.399Z,101196.98
2019-05-31T20:25:08.612Z,101204.26
2019-05-31T20:27:38.058Z,101201.51
2019-05-31T20:29:57.053Z,101206.64
2019-05-31T20:30:18.053Z,101203.70
2019-05-31T20:32:38.223Z,101204.75
2019-05-31T20:35:08.515Z,101209.55
2019-05-31T20:37:37.739Z,101203.69
2019-05-31T20:40:07.206Z,101207.92
2019-05-31T20:45:08.745Z,101201.64
2019-05-31T20:47:37.907Z,101197.81
2019-05-31T20:50:07.394Z,101202.20
2019-05-31T20:52:36.558Z,101203.31
2019-05-31T20:55:07.315Z,101203.09
2019-05-31T20:57:39.230Z,101211.12
2019-05-31T21:00:08.389Z,101213.88
2019-05-31T21:02:38.743Z,101211.95
2019-05-31T21:05:08.034Z,101212.23
2019-05-31T21:07:37.593Z,101211.58
2019-05-31T21:10:07.350Z,101214.71
2019-05-31T21:12:36.571Z,101210.81
2019-05-31T21:15:06.540Z,101217.22
2019-05-31T21:17:35.715Z,101217.42
2019-05-31T21:20:07.047Z,101211.98
2019-05-31T21:22:37.568Z,101220.41
2019-05-31T21:25:07.035Z,101216.69
2019-05-31T21:27:37.540Z,101220.93
2019-05-31T21:30:07.612Z,101217.80
2019-05-31T21:32:36.958Z,101212.53
2019-05-31T21:35:06.912Z,101222.27
2019-05-31T21:37:38.734Z,101215.83
2019-05-31T21:40:08.309Z,101208.52
2019-05-31T21:42:37.838Z,101209.57
2019-05-31T21:45:08.830Z,101206.16
2019-05-31T21:47:38.203Z,101208.74
2019-05-31T21:50:08.709Z,101203.77
2019-05-31T21:52:38.228Z,101203.22
2019-05-31T21:55:08.747Z,101206.03
2019-05-31T21:57:38.195Z,101203.50
2019-05-31T22:00:11.545Z,101199.72
2019-05-31T22:02:40.847Z,101197.92
2019-05-31T22:05:12.426Z,101194.53
2019-05-31T22:07:43.311Z,101195.78
2019-05-31T22:10:14.704Z,101197.59
2019-05-31T22:12:48.098Z,101203.95
2019-05-31T22:15:21.653Z,101203.09
2019-05-31T22:17:51.613Z,101205.16
2019-05-31T22:20:28.143Z,101209.90
2019-05-31T22:23:02.688Z,101206.41
2019-05-31T22:25:32.845Z,101208.86
2019-05-31T22:28:05.433Z,101208.62
2019-05-31T22:30:47.195Z,101208.53
2019-05-31T22:33:19.699Z,101206.75
2019-05-31T22:35:49.118Z,101206.75
2019-05-31T22:38:18.939Z,101205.90
2019-05-31T22:40:48.412Z,101206.03
2019-05-31T22:43:17.525Z,101210.05
2019-05-31T22:45:47.716Z,101206.23
2019-05-31T22:48:17.573Z,101204.80
2019-05-31T22:50:46.681Z,101204.28
2019-05-31T22:53:18.583Z,101202.02
2019-05-31T22:55:47.735Z,101204.08
2019-05-31T22:58:16.889Z,101207.41
2019-05-31T23:00:46.715Z,101207.17
2019-05-31T23:03:18.990Z,101206.69
2019-05-31T23:05:48.120Z,101202.78
2019-05-31T23:08:17.446Z,101208.61
2019-05-31T23:10:47.017Z,101207.89
2019-05-31T23:13:16.600Z,101204.13
2019-05-31T23:18:24.439Z,101201.62
2019-05-31T23:20:54.082Z,101199.70
2019-05-31T23:23:23.268Z,101204.80
2019-05-31T23:25:52.508Z,101197.78
2019-05-31T23:28:21.918Z,101196.61
2019-05-31T23:30:51.118Z,101195.86
2019-05-31T23:33:22.163Z,101195.97
2019-05-31T23:35:54.825Z,101194.77
2019-05-31T23:38:24.112Z,101202.27
2019-05-31T23:40:53.285Z,101198.77
2019-05-31T23:43:22.698Z,101195.52
2019-05-31T23:45:52.233Z,101198.19
2019-05-31T23:48:21.443Z,101194.17
2019-05-31T23:50:53.559Z,101192.23
2019-05-31T23:53:22.838Z,101197.94
2019-05-31T23:55:51.987Z,101189.82
2019-05-31T23:58:21.333Z,101193.10
